URO970P EGHH-EHBK
Flight info
| Callsign | URO970P |
|---|---|
| Flight time | 0h 50m |
| Altitude | 33000 |
| Route | SAM M140 DVR/N0419F230 L9 KONAN UL607 SPI DCT LNO |
| Aircraft | A346/H-SDE2E3FGHIJ3J4J5M1RWXY/LB1D1 |
Departure
| Time | 2026-05-08 13:31 |
|---|---|
| Airport | Bournemouth Airport (EGHH) |
Arrival
| Time | 2026-05-08 14:21 |
|---|---|
| Airport | Maastricht Aachen Airport (EHBK) |
| Time | Latitude | Longitude | Altitude | Speed | Heading |
|---|---|---|---|---|---|
| 2026-05-08 13:09 | 50.78588 | -1.84122 | 54 ft | 0 kts | 157° |
| 2026-05-08 13:27 | 50.78587 | -1.84121 | 54 ft | 2 kts | 157° |
| 2026-05-08 13:27 | 50.78536 | -1.84092 | 54 ft | 10 kts | 164° |
| 2026-05-08 13:27 | 50.78451 | -1.84059 | 50 ft | 15 kts | 167° |
| 2026-05-08 13:27 | 50.78336 | -1.84014 | 54 ft | 19 kts | 166° |
| 2026-05-08 13:28 | 50.78258 | -1.83982 | 52 ft | 4 kts | 165° |
| 2026-05-08 13:28 | 50.78217 | -1.83965 | 54 ft | 8 kts | 165° |
| 2026-05-08 13:28 | 50.78146 | -1.83936 | 51 ft | 13 kts | 165° |
| 2026-05-08 13:28 | 50.78082 | -1.83820 | 53 ft | 18 kts | 94° |
| 2026-05-08 13:29 | 50.78114 | -1.83606 | 47 ft | 22 kts | 74° |
| 2026-05-08 13:29 | 50.78158 | -1.83358 | 49 ft | 25 kts | 75° |
| 2026-05-08 13:29 | 50.78205 | -1.83073 | 54 ft | 29 kts | 75° |
| 2026-05-08 13:29 | 50.78239 | -1.82839 | 55 ft | 18 kts | 91° |
| 2026-05-08 13:30 | 50.78235 | -1.82762 | 52 ft | 3 kts | 30° |
| 2026-05-08 13:30 | 50.78248 | -1.82781 | 47 ft | 5 kts | 290° |
| 2026-05-08 13:30 | 50.78244 | -1.82855 | 47 ft | 9 kts | 254° |
| 2026-05-08 13:30 | 50.78241 | -1.82868 | 54 ft | 0 kts | 254° |
| 2026-05-08 13:31 | 50.78150 | -1.83405 | 56 ft | 107 kts | 254° |
| 2026-05-08 13:31 | 50.77889 | -1.85040 | 237 ft | 182 kts | 252° |
| 2026-05-08 13:31 | 50.77593 | -1.87072 | 1402 ft | 193 kts | 254° |
| 2026-05-08 13:31 | 50.77416 | -1.89212 | 2758 ft | 201 kts | 269° |
| 2026-05-08 13:32 | 50.77793 | -1.91344 | 3917 ft | 208 kts | 297° |
| 2026-05-08 13:32 | 50.78840 | -1.93098 | 4664 ft | 237 kts | 328° |
| 2026-05-08 13:32 | 50.80517 | -1.93935 | 5028 ft | 271 kts | 356° |
| 2026-05-08 13:32 | 50.82383 | -1.93431 | 4949 ft | 275 kts | 25° |
| 2026-05-08 13:33 | 50.83858 | -1.91584 | 4899 ft | 271 kts | 58° |
| 2026-05-08 13:33 | 50.84471 | -1.88823 | 4940 ft | 266 kts | 87° |
| 2026-05-08 13:33 | 50.84552 | -1.85889 | 4970 ft | 268 kts | 91° |
| 2026-05-08 13:33 | 50.84584 | -1.82930 | 4994 ft | 269 kts | 91° |
| 2026-05-08 13:34 | 50.84612 | -1.79968 | 4985 ft | 269 kts | 91° |
| 2026-05-08 13:34 | 50.84646 | -1.77000 | 4985 ft | 269 kts | 92° |
| 2026-05-08 13:34 | 50.84677 | -1.74034 | 4992 ft | 269 kts | 91° |
| 2026-05-08 13:34 | 50.84711 | -1.71069 | 4978 ft | 269 kts | 91° |
| 2026-05-08 13:35 | 50.84736 | -1.69106 | 4980 ft | 269 kts | 91° |
| 2026-05-08 13:35 | 50.84775 | -1.66141 | 4984 ft | 269 kts | 92° |
| 2026-05-08 13:35 | 50.84811 | -1.63178 | 4997 ft | 269 kts | 91° |
| 2026-05-08 13:35 | 50.84845 | -1.60215 | 4993 ft | 269 kts | 91° |
| 2026-05-08 13:36 | 50.84880 | -1.57256 | 5017 ft | 269 kts | 92° |
| 2026-05-08 13:36 | 50.84912 | -1.54277 | 5042 ft | 274 kts | 91° |
| 2026-05-08 13:36 | 50.84943 | -1.51177 | 5682 ft | 288 kts | 92° |
| 2026-05-08 13:36 | 50.84978 | -1.48034 | 7087 ft | 281 kts | 91° |
| 2026-05-08 13:37 | 50.85014 | -1.44928 | 8313 ft | 284 kts | 91° |
| 2026-05-08 13:37 | 50.85042 | -1.41771 | 9379 ft | 290 kts | 91° |
| 2026-05-08 13:37 | 50.85077 | -1.38562 | 10598 ft | 292 kts | 91° |
| 2026-05-08 13:37 | 50.85115 | -1.35269 | 11505 ft | 307 kts | 91° |
| 2026-05-08 13:38 | 50.85146 | -1.31774 | 12246 ft | 327 kts | 91° |
| 2026-05-08 13:38 | 50.85175 | -1.28065 | 12966 ft | 346 kts | 90° |
| 2026-05-08 13:38 | 50.85212 | -1.24145 | 13652 ft | 366 kts | 91° |
| 2026-05-08 13:38 | 50.85250 | -1.20004 | 14263 ft | 385 kts | 91° |
| 2026-05-08 13:39 | 50.85285 | -1.15698 | 15094 ft | 392 kts | 91° |
| 2026-05-08 13:39 | 50.85325 | -1.11362 | 16024 ft | 395 kts | 91° |
| 2026-05-08 13:39 | 50.85359 | -1.06989 | 16682 ft | 398 kts | 91° |
| 2026-05-08 13:39 | 50.85389 | -1.02596 | 17017 ft | 400 kts | 91° |
| 2026-05-08 13:40 | 50.85422 | -0.98187 | 17057 ft | 400 kts | 92° |
| 2026-05-08 13:40 | 50.85479 | -0.93783 | 17045 ft | 401 kts | 87° |
| 2026-05-08 13:40 | 50.85861 | -0.89341 | 17263 ft | 413 kts | 82° |
| 2026-05-08 13:40 | 50.86386 | -0.84818 | 18327 ft | 415 kts | 81° |
| 2026-05-08 13:41 | 50.86907 | -0.80333 | 19365 ft | 414 kts | 81° |
| 2026-05-08 13:41 | 50.87417 | -0.75800 | 20156 ft | 422 kts | 80° |
| 2026-05-08 13:41 | 50.87917 | -0.71227 | 20878 ft | 430 kts | 80° |
| 2026-05-08 13:41 | 50.88429 | -0.66442 | 21707 ft | 436 kts | 79° |
| 2026-05-08 13:42 | 50.88935 | -0.61664 | 22510 ft | 442 kts | 79° |
| 2026-05-08 13:42 | 50.89443 | -0.56830 | 23333 ft | 447 kts | 79° |
| 2026-05-08 13:42 | 50.89953 | -0.51925 | 24028 ft | 453 kts | 79° |
| 2026-05-08 13:42 | 50.90468 | -0.46956 | 24646 ft | 459 kts | 79° |
| 2026-05-08 13:43 | 50.90986 | -0.41931 | 25276 ft | 465 kts | 79° |
| 2026-05-08 13:43 | 50.91510 | -0.36813 | 25798 ft | 474 kts | 79° |
| 2026-05-08 13:43 | 50.92038 | -0.31623 | 26382 ft | 480 kts | 79° |
| 2026-05-08 13:43 | 50.92569 | -0.26370 | 27030 ft | 485 kts | 79° |
| 2026-05-08 13:44 | 50.93103 | -0.21058 | 27652 ft | 489 kts | 79° |
| 2026-05-08 13:44 | 50.93639 | -0.15695 | 28268 ft | 494 kts | 79° |
| 2026-05-08 13:44 | 50.94177 | -0.10285 | 28847 ft | 496 kts | 79° |
| 2026-05-08 13:44 | 50.94712 | -0.04874 | 29062 ft | 495 kts | 79° |
| 2026-05-08 13:45 | 50.95766 | 0.05899 | 29063 ft | 492 kts | 78° |
| 2026-05-08 13:45 | 50.96811 | 0.16627 | 29052 ft | 491 kts | 78° |
| 2026-05-08 13:46 | 50.97847 | 0.27354 | 29044 ft | 491 kts | 79° |
| 2026-05-08 13:46 | 50.98864 | 0.38012 | 29038 ft | 491 kts | 79° |
| 2026-05-08 13:47 | 50.99888 | 0.48866 | 29046 ft | 491 kts | 78° |
| 2026-05-08 13:47 | 51.00886 | 0.59586 | 29047 ft | 488 kts | 78° |
| 2026-05-08 13:48 | 51.01877 | 0.70270 | 29045 ft | 488 kts | 78° |
| 2026-05-08 13:48 | 51.02849 | 0.80884 | 29055 ft | 488 kts | 79° |
| 2026-05-08 13:49 | 51.03818 | 0.91572 | 29078 ft | 488 kts | 79° |
| 2026-05-08 13:49 | 51.04768 | 1.02232 | 29096 ft | 484 kts | 78° |
| 2026-05-08 13:50 | 51.05709 | 1.12828 | 29090 ft | 483 kts | 78° |
| 2026-05-08 13:50 | 51.06641 | 1.23421 | 29091 ft | 483 kts | 78° |
| 2026-05-08 13:51 | 51.07562 | 1.34021 | 29088 ft | 483 kts | 78° |
| 2026-05-08 13:51 | 51.08472 | 1.44625 | 29104 ft | 482 kts | 79° |
| 2026-05-08 13:52 | 51.09365 | 1.55156 | 29084 ft | 478 kts | 79° |
| 2026-05-08 13:52 | 51.10240 | 1.65561 | 29083 ft | 478 kts | 79° |
| 2026-05-08 13:53 | 51.11113 | 1.76071 | 29082 ft | 478 kts | 79° |
| 2026-05-08 13:53 | 51.11975 | 1.86580 | 29082 ft | 478 kts | 79° |
| 2026-05-08 13:54 | 51.12682 | 1.97155 | 29091 ft | 481 kts | 85° |
| 2026-05-08 13:54 | 51.12683 | 2.07765 | 29089 ft | 483 kts | 91° |
| 2026-05-08 13:55 | 51.12164 | 2.18459 | 29089 ft | 484 kts | 93° |
| 2026-05-08 13:56 | 51.11326 | 2.34498 | 29077 ft | 484 kts | 93° |
| 2026-05-08 13:56 | 51.10774 | 2.45184 | 29082 ft | 483 kts | 94° |
| 2026-05-08 13:57 | 51.10196 | 2.55855 | 29075 ft | 483 kts | 95° |
| 2026-05-08 13:57 | 51.09252 | 2.66446 | 29073 ft | 484 kts | 101° |
| 2026-05-08 13:58 | 51.07588 | 2.76826 | 29070 ft | 484 kts | 106° |
| 2026-05-08 13:58 | 51.05696 | 2.87109 | 29094 ft | 482 kts | 107° |
| 2026-05-08 13:59 | 51.03801 | 2.97316 | 29084 ft | 481 kts | 107° |
| 2026-05-08 13:59 | 51.01900 | 3.07498 | 29082 ft | 481 kts | 107° |
| 2026-05-08 14:00 | 50.99993 | 3.17686 | 29075 ft | 481 kts | 107° |
| 2026-05-08 14:00 | 50.98079 | 3.27864 | 29069 ft | 481 kts | 107° |
| 2026-05-08 14:01 | 50.96160 | 3.38028 | 29071 ft | 480 kts | 107° |
| 2026-05-08 14:01 | 50.94229 | 3.48180 | 29065 ft | 483 kts | 107° |
| 2026-05-08 14:02 | 50.92272 | 3.58413 | 29066 ft | 485 kts | 107° |
| 2026-05-08 14:02 | 50.90306 | 3.68651 | 29068 ft | 485 kts | 107° |
| 2026-05-08 14:03 | 50.88335 | 3.78887 | 29070 ft | 485 kts | 108° |
| 2026-05-08 14:03 | 50.86358 | 3.89098 | 29069 ft | 484 kts | 108° |
| 2026-05-08 14:04 | 50.84382 | 3.99232 | 29076 ft | 484 kts | 108° |
| 2026-05-08 14:04 | 50.82380 | 4.09452 | 29077 ft | 487 kts | 108° |
| 2026-05-08 14:05 | 50.80363 | 4.19692 | 29083 ft | 487 kts | 108° |
| 2026-05-08 14:05 | 50.78337 | 4.29933 | 29086 ft | 488 kts | 108° |
| 2026-05-08 14:06 | 50.76301 | 4.40165 | 29088 ft | 488 kts | 108° |
| 2026-05-08 14:06 | 50.74253 | 4.50401 | 29086 ft | 488 kts | 108° |
| 2026-05-08 14:07 | 50.72198 | 4.60618 | 29085 ft | 488 kts | 108° |
| 2026-05-08 14:07 | 50.70208 | 4.70864 | 29076 ft | 487 kts | 108° |
| 2026-05-08 14:08 | 50.68231 | 4.81095 | 29082 ft | 486 kts | 108° |
| 2026-05-08 14:08 | 50.66236 | 4.91300 | 29083 ft | 486 kts | 108° |
| 2026-05-08 14:09 | 50.64171 | 5.01466 | 29076 ft | 486 kts | 109° |
| 2026-05-08 14:09 | 50.62098 | 5.11492 | 28111 ft | 477 kts | 109° |
| 2026-05-08 14:09 | 50.60990 | 5.16359 | 26827 ft | 465 kts | 116° |
| 2026-05-08 14:10 | 50.59341 | 5.20681 | 26003 ft | 443 kts | 129° |
| 2026-05-08 14:10 | 50.57271 | 5.24113 | 25243 ft | 423 kts | 140° |
| 2026-05-08 14:10 | 50.55079 | 5.27077 | 24507 ft | 408 kts | 142° |
| 2026-05-08 14:10 | 50.52953 | 5.29832 | 23799 ft | 396 kts | 142° |
| 2026-05-08 14:11 | 50.50852 | 5.32533 | 22969 ft | 384 kts | 142° |
| 2026-05-08 14:11 | 50.48804 | 5.35163 | 22154 ft | 375 kts | 142° |
| 2026-05-08 14:11 | 50.46809 | 5.37726 | 21355 ft | 366 kts | 142° |
| 2026-05-08 14:11 | 50.44867 | 5.40231 | 20571 ft | 358 kts | 141° |
| 2026-05-08 14:12 | 50.43267 | 5.43171 | 19782 ft | 354 kts | 120° |
| 2026-05-08 14:12 | 50.42469 | 5.46786 | 19042 ft | 351 kts | 98° |
| 2026-05-08 14:12 | 50.42578 | 5.50569 | 18312 ft | 347 kts | 76° |
| 2026-05-08 14:12 | 50.43551 | 5.53998 | 17496 ft | 343 kts | 58° |
| 2026-05-08 14:13 | 50.44913 | 5.57043 | 16708 ft | 338 kts | 53° |
| 2026-05-08 14:13 | 50.46327 | 5.59968 | 15927 ft | 334 kts | 53° |
| 2026-05-08 14:13 | 50.47733 | 5.62842 | 15172 ft | 330 kts | 52° |
| 2026-05-08 14:13 | 50.49125 | 5.65687 | 14432 ft | 326 kts | 52° |
| 2026-05-08 14:14 | 50.50676 | 5.68233 | 13650 ft | 322 kts | 32° |
| 2026-05-08 14:14 | 50.52729 | 5.69509 | 12855 ft | 316 kts | 12° |
| 2026-05-08 14:14 | 50.54873 | 5.70190 | 12083 ft | 313 kts | 9° |
| 2026-05-08 14:14 | 50.57005 | 5.70822 | 11322 ft | 310 kts | 10° |
| 2026-05-08 14:15 | 50.59098 | 5.71505 | 10657 ft | 304 kts | 11° |
| 2026-05-08 14:15 | 50.61145 | 5.72230 | 10051 ft | 299 kts | 12° |
| 2026-05-08 14:15 | 50.63147 | 5.72974 | 9378 ft | 293 kts | 12° |
| 2026-05-08 14:15 | 50.65106 | 5.73722 | 8702 ft | 287 kts | 13° |
| 2026-05-08 14:16 | 50.67027 | 5.74468 | 8060 ft | 283 kts | 13° |
| 2026-05-08 14:16 | 50.68930 | 5.75212 | 7433 ft | 279 kts | 13° |
| 2026-05-08 14:16 | 50.70795 | 5.75945 | 6883 ft | 274 kts | 13° |
| 2026-05-08 14:16 | 50.72628 | 5.76665 | 6328 ft | 268 kts | 13° |
| 2026-05-08 14:17 | 50.74415 | 5.77369 | 5809 ft | 260 kts | 14° |
| 2026-05-08 14:17 | 50.76152 | 5.78021 | 5291 ft | 254 kts | 7° |
| 2026-05-08 14:17 | 50.77857 | 5.77659 | 4711 ft | 249 kts | 331° |
| 2026-05-08 14:17 | 50.79074 | 5.75801 | 4221 ft | 244 kts | 303° |
| 2026-05-08 14:18 | 50.79926 | 5.73576 | 3847 ft | 235 kts | 301° |
| 2026-05-08 14:18 | 50.80737 | 5.71374 | 3366 ft | 222 kts | 301° |
| 2026-05-08 14:18 | 50.81501 | 5.69343 | 3005 ft | 205 kts | 310° |
| 2026-05-08 14:18 | 50.82580 | 5.68146 | 2651 ft | 190 kts | 345° |
| 2026-05-08 14:19 | 50.83851 | 5.68276 | 2101 ft | 183 kts | 26° |
| 2026-05-08 14:19 | 50.84774 | 5.69567 | 1719 ft | 169 kts | 50° |
| 2026-05-08 14:19 | 50.85532 | 5.70935 | 1385 ft | 161 kts | 47° |
| 2026-05-08 14:19 | 50.86360 | 5.72046 | 1169 ft | 154 kts | 34° |
| 2026-05-08 14:20 | 50.87245 | 5.72914 | 1186 ft | 143 kts | 35° |
| 2026-05-08 14:20 | 50.88048 | 5.73771 | 901 ft | 134 kts | 35° |
| 2026-05-08 14:20 | 50.88806 | 5.74579 | 718 ft | 131 kts | 35° |
| 2026-05-08 14:20 | 50.89569 | 5.75368 | 576 ft | 131 kts | 35° |
| 2026-05-08 14:21 | 50.90336 | 5.76149 | 397 ft | 127 kts | 34° |
| 2026-05-08 14:21 | 50.90928 | 5.76757 | 390 ft | 76 kts | 30° |
| 2026-05-08 14:21 | 50.91366 | 5.77202 | 393 ft | 57 kts | 33° |
| 2026-05-08 14:21 | 50.91567 | 5.77406 | 391 ft | 30 kts | 32° |
| 2026-05-08 14:22 | 50.91747 | 5.77588 | 391 ft | 31 kts | 32° |
| 2026-05-08 14:22 | 50.91917 | 5.77762 | 392 ft | 23 kts | 32° |
| 2026-05-08 14:22 | 50.92026 | 5.77863 | 392 ft | 17 kts | 15° |
| 2026-05-08 14:22 | 50.92099 | 5.77823 | 393 ft | 16 kts | 316° |
| 2026-05-08 14:23 | 50.92120 | 5.77780 | 393 ft | 0 kts | 304° |
| 2026-05-08 14:23 | 50.92121 | 5.77780 | 393 ft | 0 kts | 304° |
| 2026-05-08 14:23 | 50.92127 | 5.77764 | 393 ft | 5 kts | 302° |
| 2026-05-08 14:23 | 50.92140 | 5.77709 | 392 ft | 0 kts | 256° |
| 2026-05-08 14:24 | 50.92135 | 5.77677 | 392 ft | 6 kts | 265° |
| 2026-05-08 14:24 | 50.92145 | 5.77622 | 392 ft | 1 kts | 301° |
| 2026-05-08 14:24 | 50.92156 | 5.77594 | 392 ft | 0 kts | 302° |
| 2026-05-08 14:24 | 50.92159 | 5.77586 | 392 ft | 3 kts | 302° |
| 2026-05-08 14:25 | 50.92165 | 5.77573 | 392 ft | 0 kts | 302° |